createdAt,value
2022-12-31T00:01:25.837Z,99945.23
2022-12-31T00:03:55.220Z,99941.33
2022-12-31T00:06:31.520Z,99943.12
2022-12-31T00:09:03.272Z,99939.95
2022-12-31T00:11:33.265Z,99933.98
2022-12-31T00:14:02.776Z,99930.37
2022-12-31T00:16:36.774Z,99930.21
2022-12-31T00:19:07.926Z,99937.69
2022-12-31T00:21:37.363Z,99946.83
2022-12-31T00:24:07.199Z,99940.76
2022-12-31T00:26:36.152Z,99938.69
2022-12-31T00:29:05.673Z,99936.01
2022-12-31T00:31:38.224Z,99929.84
2022-12-31T00:34:07.426Z,99922.53
2022-12-31T00:36:39.077Z,99918.35
2022-12-31T00:39:10.311Z,99919.25
2022-12-31T00:41:38.855Z,99918.19
2022-12-31T00:44:07.197Z,99919.23
2022-12-31T00:49:06.725Z,99921.93
2022-12-31T00:51:35.042Z,99929.16
2022-12-31T00:54:03.572Z,99935.07
2022-12-31T00:56:32.853Z,99943.02
2022-12-31T00:59:01.397Z,99944.42
2022-12-31T01:01:37.798Z,99949.49
2022-12-31T01:04:18.783Z,99943.10
2022-12-31T01:06:48.125Z,99942.16
2022-12-31T01:09:17.248Z,99942.33
2022-12-31T01:11:46.431Z,99949.38
2022-12-31T01:14:19.413Z,99955.98
2022-12-31T01:16:51.811Z,99961.20
2022-12-31T01:19:27.119Z,99962.73
2022-12-31T01:21:56.399Z,99958.33
2022-12-31T01:24:25.089Z,99955.79
2022-12-31T01:26:57.623Z,99954.30
2022-12-31T01:29:26.623Z,99947.35
2022-12-31T01:32:17.944Z,99946.27
2022-12-31T01:34:47.718Z,99945.48
2022-12-31T01:37:16.062Z,99938.56
2022-12-31T01:39:44.336Z,99939.86
2022-12-31T01:42:12.678Z,99939.30
2022-12-31T01:44:40.973Z,99931.04
2022-12-31T01:47:17.955Z,99936.84
2022-12-31T01:50:03.345Z,99944.73
2022-12-31T01:52:40.180Z,99952.63
2022-12-31T01:55:33.512Z,99958.52
2022-12-31T01:58:19.695Z,99962.65
2022-12-31T02:00:49.591Z,99962.88
2022-12-31T02:03:18.837Z,99968.69
2022-12-31T02:05:54.750Z,99970.27
2022-12-31T02:08:23.423Z,99981.27
2022-12-31T02:10:51.778Z,99982.80
2022-12-31T02:13:20.263Z,99987.52
2022-12-31T02:16:08.081Z,99989.46
2022-12-31T02:18:45.260Z,99993.60
2022-12-31T02:21:35.466Z,99987.88
2022-12-31T02:24:58.333Z,99978.29
2022-12-31T02:28:23.265Z,99980.80
2022-12-31T02:31:01.921Z,99985.50
2022-12-31T02:33:40.978Z,99986.91
2022-12-31T02:36:24.230Z,99984.55
2022-12-31T02:38:52.829Z,99976.95
2022-12-31T02:41:40.458Z,99981.86
2022-12-31T02:44:23.333Z,99974.70
2022-12-31T02:47:10.545Z,99974.50
2022-12-31T02:50:06.373Z,99983.33
2022-12-31T02:53:03.763Z,99986.18
2022-12-31T02:55:39.690Z,99988.73
2022-12-31T02:58:58.805Z,99998.17
2022-12-31T03:01:55.566Z,100005.56
2022-12-31T03:04:35.897Z,100002.05
2022-12-31T03:07:07.396Z,99996.49
2022-12-31T03:09:36.991Z,99994.77
2022-12-31T03:12:27.172Z,99995.02
2022-12-31T03:14:55.590Z,99990.79
2022-12-31T03:17:24.878Z,99999.65
2022-12-31T03:20:12.165Z,100003.34
2022-12-31T03:22:43.519Z,100006.55
2022-12-31T03:25:36.198Z,100006.91
2022-12-31T03:28:14.635Z,100010.35
2022-12-31T03:30:47.501Z,100019.54
2022-12-31T03:33:16.650Z,100016.39
2022-12-31T03:35:47.290Z,100014.08
2022-12-31T03:38:17.462Z,100015.55
2022-12-31T03:40:52.010Z,100018.91
2022-12-31T03:43:20.659Z,100027.55
2022-12-31T03:45:54.574Z,100029.96
2022-12-31T03:48:23.656Z,100035.34
2022-12-31T03:50:52.100Z,100034.88
2022-12-31T03:53:20.819Z,100037.22
2022-12-31T04:00:54.209Z,100040.14
2022-12-31T04:03:22.625Z,100036.48
2022-12-31T04:05:55.724Z,100035.45
2022-12-31T04:08:25.111Z,100038.80
2022-12-31T04:10:53.522Z,100021.74
2022-12-31T04:13:21.885Z,100016.66
2022-12-31T04:15:52.013Z,100014.38
2022-12-31T04:18:20.347Z,100017.13
2022-12-31T04:20:48.731Z,100015.86
2022-12-31T04:23:17.211Z,100004.20
2022-12-31T04:25:45.581Z,100011.87
2022-12-31T04:28:13.973Z,100014.80
2022-12-31T04:30:43.404Z,100020.84
2022-12-31T04:33:12.004Z,100015.42
2022-12-31T04:35:40.374Z,100006.31
2022-12-31T04:38:08.727Z,99997.51
2022-12-31T04:40:57.062Z,99998.80
2022-12-31T04:43:25.422Z,99989.08
2022-12-31T04:45:53.766Z,99991.70
2022-12-31T04:48:22.119Z,100003.02
2022-12-31T04:50:51.296Z,100008.75
2022-12-31T04:53:19.689Z,100020.99
2022-12-31T04:55:47.983Z,100024.73
2022-12-31T04:58:17.009Z,100029.59
2022-12-31T05:00:50.525Z,100030.70
2022-12-31T05:03:19.150Z,100030.98
2022-12-31T05:05:48.027Z,100030.96
2022-12-31T05:08:17.714Z,100025.41
2022-12-31T05:10:49.483Z,100017.14
2022-12-31T05:13:17.814Z,100016.55
2022-12-31T05:15:47.655Z,100017.04
2022-12-31T05:18:17.154Z,100010.48
2022-12-31T05:20:46.676Z,100012.84
2022-12-31T05:23:16.982Z,100009.51
2022-12-31T05:25:47.971Z,100006.82
2022-12-31T05:28:17.358Z,100002.38
2022-12-31T05:30:50.170Z,99996.56
2022-12-31T05:33:19.120Z,99992.39
2022-12-31T05:35:47.554Z,100000.94
2022-12-31T05:38:16.026Z,100003.25
2022-12-31T05:40:44.598Z,100011.05
2022-12-31T05:43:12.940Z,100020.71
2022-12-31T05:45:41.292Z,100017.14
2022-12-31T05:48:09.617Z,100018.36
2022-12-31T05:50:38.114Z,100020.55
2022-12-31T05:53:06.491Z,100028.09
2022-12-31T05:55:34.789Z,100022.42
2022-12-31T05:58:03.170Z,100021.55
2022-12-31T06:00:31.530Z,100014.56
2022-12-31T06:02:59.985Z,100010.14
2022-12-31T06:05:28.626Z,100022.23
2022-12-31T06:07:56.949Z,100019.86
2022-12-31T06:10:25.262Z,100023.87
2022-12-31T06:12:53.610Z,100023.41
2022-12-31T06:15:21.969Z,100022.38
2022-12-31T06:17:50.307Z,100017.55
2022-12-31T06:20:18.675Z,100018.82
2022-12-31T06:22:47.049Z,100022.06
2022-12-31T06:25:15.427Z,100021.31
2022-12-31T06:27:43.865Z,100019.11
2022-12-31T06:30:13.395Z,100019.94
2022-12-31T06:32:42.209Z,100024.93
2022-12-31T06:35:10.610Z,100030.73
2022-12-31T06:37:39.007Z,100040.23
2022-12-31T06:40:08.391Z,100038.24
2022-12-31T06:42:36.673Z,100045.25
2022-12-31T06:45:05.993Z,100045.16
2022-12-31T06:47:34.317Z,100045.81
2022-12-31T06:50:02.810Z,100043.04
2022-12-31T06:52:31.203Z,100039.33
2022-12-31T06:55:00.731Z,100025.65
2022-12-31T06:57:30.093Z,100041.36
2022-12-31T06:59:58.901Z,100042.77
2022-12-31T07:02:51.965Z,100036.95
2022-12-31T07:05:39.543Z,100025.40
2022-12-31T07:09:00.715Z,100029.88
2022-12-31T07:12:31.706Z,100043.48
2022-12-31T07:15:25.057Z,100053.34
2022-12-31T07:18:05.425Z,100067.85
2022-12-31T07:20:34.344Z,100069.36
2022-12-31T07:23:03.184Z,100064.80
2022-12-31T07:25:32.615Z,100066.28
2022-12-31T07:28:28.991Z,100062.66
2022-12-31T07:31:12.138Z,100061.04
2022-12-31T07:33:58.037Z,100062.52
2022-12-31T07:36:35.374Z,100069.92
2022-12-31T07:39:14.788Z,100068.47
2022-12-31T07:41:55.176Z,100056.04
2022-12-31T07:44:42.117Z,100057.10
2022-12-31T07:47:23.078Z,100062.84
2022-12-31T07:49:52.445Z,100065.25
2022-12-31T07:52:21.829Z,100065.08
2022-12-31T07:54:50.481Z,100068.23
2022-12-31T07:57:21.758Z,100065.25
2022-12-31T08:00:13.855Z,100062.38
2022-12-31T08:03:33.881Z,100064.04
2022-12-31T08:06:19.425Z,100060.89
2022-12-31T08:09:02.274Z,100066.39
2022-12-31T08:11:53.005Z,100075.45
2022-12-31T08:14:21.682Z,100088.02
2022-12-31T08:16:50.962Z,100082.35
2022-12-31T08:19:30.644Z,100077.50
2022-12-31T08:22:39.095Z,100074.94
2022-12-31T08:25:40.952Z,100070.59
2022-12-31T08:28:50.667Z,100080.03
2022-12-31T08:32:12.966Z,100084.83
2022-12-31T08:35:02.668Z,100079.45
2022-12-31T08:37:42.972Z,100083.83
2022-12-31T08:40:48.983Z,100078.29
2022-12-31T08:43:49.680Z,100084.02
2022-12-31T08:46:47.083Z,100088.48
2022-12-31T08:49:15.941Z,100084.09
2022-12-31T08:51:44.633Z,100078.40
2022-12-31T08:54:13.438Z,100074.82
2022-12-31T08:57:18.859Z,100075.30
2022-12-31T09:00:10.045Z,100074.08
2022-12-31T09:03:10.898Z,100061.33
2022-12-31T09:05:53.098Z,100061.77
2022-12-31T09:08:47.278Z,100057.23
2022-12-31T09:12:12.902Z,100051.76
2022-12-31T09:14:44.057Z,100051.39
2022-12-31T09:17:42.201Z,100054.00
2022-12-31T09:20:42.883Z,100051.89
2022-12-31T09:23:13.519Z,100060.05
2022-12-31T09:26:08.709Z,100059.63
2022-12-31T09:28:57.869Z,100061.47
2022-12-31T09:32:05.894Z,100066.20
2022-12-31T09:34:58.219Z,100067.62
2022-12-31T09:37:29.492Z,100065.86
2022-12-31T09:40:10.329Z,100072.86
2022-12-31T09:43:28.533Z,100074.33
2022-12-31T09:46:18.052Z,100072.24
2022-12-31T09:49:27.570Z,100071.13
2022-12-31T09:52:10.888Z,100070.45
2022-12-31T09:55:24.171Z,100074.89
2022-12-31T09:58:26.229Z,100065.17
2022-12-31T10:01:11.240Z,100063.99
2022-12-31T10:04:01.273Z,100060.86
2022-12-31T10:07:16.050Z,100055.57
2022-12-31T10:10:03.289Z,100063.63
2022-12-31T10:12:44.736Z,100077.87
2022-12-31T10:15:44.170Z,100077.84
2022-12-31T10:18:37.683Z,100078.15
2022-12-31T10:21:32.553Z,100067.86
2022-12-31T10:24:58.876Z,100062.67
2022-12-31T10:28:00.176Z,100068.37
2022-12-31T10:30:35.436Z,100058.05
2022-12-31T10:33:44.613Z,100052.90
2022-12-31T10:36:30.934Z,100047.87
2022-12-31T10:39:36.452Z,100044.54
2022-12-31T10:42:32.700Z,100043.40
2022-12-31T10:45:50.680Z,100036.55
2022-12-31T10:48:37.274Z,100031.35
2022-12-31T10:51:29.954Z,100032.08
2022-12-31T10:54:53.024Z,100040.27
2022-12-31T10:58:23.197Z,100035.74
2022-12-31T11:01:48.636Z,100034.66
2022-12-31T11:05:00.460Z,100033.20
2022-12-31T11:08:13.792Z,100033.73
2022-12-31T11:11:35.000Z,100030.48
2022-12-31T11:14:39.864Z,100026.21
2022-12-31T11:17:49.149Z,100020.95
2022-12-31T11:21:16.187Z,100019.27
2022-12-31T11:24:27.379Z,100027.27
2022-12-31T11:27:47.602Z,100024.96
2022-12-31T11:30:49.291Z,100021.66
2022-12-31T11:33:50.186Z,100018.05
2022-12-31T11:36:53.543Z,100013.41
2022-12-31T11:40:19.678Z,100013.08
2022-12-31T11:43:16.180Z,100012.46
2022-12-31T11:46:14.650Z,100011.13
2022-12-31T11:49:21.914Z,100008.73
2022-12-31T11:52:13.525Z,100011.29
2022-12-31T11:55:08.846Z,100000.86
2022-12-31T11:57:39.888Z,99994.31
2022-12-31T12:00:23.119Z,99999.38
2022-12-31T12:03:01.391Z,99996.02
2022-12-31T12:05:31.724Z,99994.60
2022-12-31T12:08:02.148Z,99996.60
2022-12-31T12:10:38.578Z,99992.30
2022-12-31T12:13:22.376Z,99986.73
2022-12-31T12:16:09.688Z,99985.65
2022-12-31T12:19:04.051Z,99987.91
2022-12-31T12:21:33.954Z,99993.96
2022-12-31T12:24:27.333Z,99999.23
2022-12-31T12:26:57.534Z,100005.47
2022-12-31T12:29:36.301Z,100003.36
2022-12-31T12:32:20.569Z,100007.17
2022-12-31T12:34:50.138Z,100013.23
2022-12-31T12:37:24.577Z,100013.87
2022-12-31T12:40:18.166Z,100012.27
2022-12-31T12:42:48.802Z,100011.13
2022-12-31T12:45:25.385Z,100020.73
2022-12-31T12:48:01.354Z,100016.40
2022-12-31T12:50:45.657Z,100020.96
2022-12-31T12:53:35.199Z,100025.59
2022-12-31T12:56:52.350Z,100024.41
2022-12-31T12:59:49.547Z,100027.88
2022-12-31T13:02:48.932Z,100027.95
2022-12-31T13:05:58.085Z,100022.76
2022-12-31T13:09:08.622Z,100020.27
2022-12-31T13:12:07.577Z,100022.44
2022-12-31T13:15:18.068Z,100022.86
2022-12-31T13:18:01.472Z,100033.27
2022-12-31T13:20:44.265Z,100036.54
2022-12-31T13:23:42.272Z,100039.80
2022-12-31T13:26:25.725Z,100044.88
2022-12-31T13:28:57.377Z,100044.39
2022-12-31T13:31:36.282Z,100050.64
2022-12-31T13:34:18.093Z,100047.52
2022-12-31T13:36:50.705Z,100050.50
2022-12-31T13:39:29.943Z,100055.23
2022-12-31T13:42:11.822Z,100057.41
2022-12-31T13:44:51.760Z,100060.17
2022-12-31T13:47:49.171Z,100054.80
2022-12-31T13:50:32.470Z,100061.27
2022-12-31T13:53:16.135Z,100055.34
2022-12-31T13:55:59.137Z,100056.84
2022-12-31T13:58:54.857Z,100057.24
2022-12-31T14:01:33.565Z,100061.86
2022-12-31T14:04:21.427Z,100057.80
2022-12-31T14:07:01.327Z,100058.91
2022-12-31T14:09:34.469Z,100056.86
2022-12-31T14:12:40.110Z,100060.98
2022-12-31T14:15:41.402Z,100064.02
2022-12-31T14:18:32.924Z,100064.17
2022-12-31T14:21:43.217Z,100070.63
2022-12-31T14:24:51.178Z,100068.20
2022-12-31T14:27:35.153Z,100073.49
2022-12-31T14:30:13.266Z,100070.23
2022-12-31T14:32:59.663Z,100067.95
2022-12-31T14:36:11.463Z,100069.86
2022-12-31T14:39:10.469Z,100077.70
2022-12-31T14:42:14.579Z,100074.94
2022-12-31T14:45:06.753Z,100079.08
2022-12-31T14:48:11.502Z,100077.58
2022-12-31T14:50:40.197Z,100077.61
2022-12-31T14:53:23.133Z,100073.95
2022-12-31T14:56:26.743Z,100069.39
2022-12-31T14:59:24.160Z,100067.65
2022-12-31T15:01:53.682Z,100061.33
2022-12-31T15:04:45.609Z,100061.97
2022-12-31T15:07:53.303Z,100062.77
2022-12-31T15:10:36.172Z,100071.29
2022-12-31T15:13:11.146Z,100071.38
2022-12-31T15:16:08.104Z,100069.33
2022-12-31T15:18:57.612Z,100068.86
2022-12-31T15:21:50.614Z,100070.06
2022-12-31T15:24:28.079Z,100068.41
2022-12-31T15:27:04.063Z,100076.34
2022-12-31T15:29:45.620Z,100082.35
2022-12-31T15:32:36.037Z,100081.79
2022-12-31T15:35:20.996Z,100078.91
2022-12-31T15:38:17.791Z,100079.48
2022-12-31T15:40:52.188Z,100080.94
2022-12-31T15:43:35.913Z,100090.14
2022-12-31T15:46:17.351Z,100104.19
2022-12-31T15:49:04.972Z,100103.23
2022-12-31T15:51:50.679Z,100104.88
2022-12-31T15:54:42.326Z,100109.63
2022-12-31T15:57:38.927Z,100115.42
2022-12-31T16:00:45.301Z,100119.52
2022-12-31T16:03:24.706Z,100125.64
2022-12-31T16:06:01.115Z,100129.52
2022-12-31T16:08:35.052Z,100129.59
2022-12-31T16:11:07.335Z,100133.64
2022-12-31T16:13:41.818Z,100135.86
2022-12-31T16:16:24.484Z,100133.80
2022-12-31T16:18:53.586Z,100134.00
2022-12-31T16:21:34.215Z,100136.16
2022-12-31T16:24:26.084Z,100140.36
2022-12-31T16:26:59.863Z,100150.21
2022-12-31T16:29:30.792Z,100153.86
2022-12-31T16:31:59.201Z,100156.56
2022-12-31T16:34:28.327Z,100154.84
2022-12-31T16:37:06.990Z,100159.74
2022-12-31T16:39:38.013Z,100163.34
2022-12-31T16:42:20.871Z,100165.14
2022-12-31T16:44:51.034Z,100168.30
2022-12-31T16:47:24.654Z,100169.54
2022-12-31T16:50:04.056Z,100169.73
2022-12-31T16:52:37.210Z,100172.04
2022-12-31T16:55:19.667Z,100173.89
2022-12-31T16:57:55.404Z,100176.48
2022-12-31T17:00:25.551Z,100181.85
2022-12-31T17:03:23.682Z,100184.08
2022-12-31T17:06:07.406Z,100179.45
2022-12-31T17:09:04.618Z,100177.08
2022-12-31T17:11:43.295Z,100177.34
2022-12-31T17:14:16.258Z,100178.79
2022-12-31T17:17:01.640Z,100187.52
2022-12-31T17:19:48.853Z,100180.58
2022-12-31T17:22:46.632Z,100186.02
2022-12-31T17:25:20.899Z,100192.81
2022-12-31T17:28:22.112Z,100193.82
2022-12-31T17:30:51.127Z,100196.09
2022-12-31T17:33:22.627Z,100197.05
2022-12-31T17:36:25.065Z,100194.77
2022-12-31T17:38:53.495Z,100205.20
2022-12-31T17:41:25.623Z,100203.42
2022-12-31T17:43:56.931Z,100206.97
2022-12-31T17:46:26.180Z,100206.84
2022-12-31T17:49:01.335Z,100211.52
2022-12-31T17:51:29.694Z,100210.56
2022-12-31T17:54:00.433Z,100214.42
2022-12-31T17:56:29.022Z,100213.27
2022-12-31T17:58:57.339Z,100219.60
2022-12-31T18:01:26.467Z,100220.65
2022-12-31T18:03:55.819Z,100217.55
2022-12-31T18:06:24.756Z,100217.85
2022-12-31T18:08:53.124Z,100227.44
2022-12-31T18:11:24.380Z,100228.41
2022-12-31T18:13:54.046Z,100223.03
2022-12-31T18:16:22.664Z,100222.73
2022-12-31T18:18:51.031Z,100221.20
2022-12-31T18:21:34.737Z,100225.66
2022-12-31T18:26:34.433Z,100231.59
2022-12-31T18:29:15.381Z,100233.05
2022-12-31T18:31:46.525Z,100234.86
2022-12-31T18:34:17.159Z,100228.99
2022-12-31T18:36:46.255Z,100232.94
2022-12-31T18:39:14.636Z,100239.10
2022-12-31T18:41:49.058Z,100232.39
2022-12-31T18:44:17.927Z,100224.27
2022-12-31T18:46:46.350Z,100223.13
2022-12-31T18:49:14.624Z,100221.13
2022-12-31T18:51:43.028Z,100224.31
2022-12-31T18:54:12.298Z,100224.23
2022-12-31T18:56:46.498Z,100222.88
2022-12-31T18:59:15.564Z,100219.23
2022-12-31T19:01:44.153Z,100213.92
2022-12-31T19:04:21.270Z,100211.20
2022-12-31T19:06:53.313Z,100211.84
2022-12-31T19:12:14.997Z,100214.75
2022-12-31T19:14:43.399Z,100213.52
2022-12-31T19:17:11.707Z,100206.13
2022-12-31T19:19:40.120Z,100215.93
2022-12-31T19:22:15.428Z,100218.72
2022-12-31T19:24:43.916Z,100217.96
2022-12-31T19:27:12.349Z,100211.64
2022-12-31T19:29:40.744Z,100212.41
2022-12-31T19:32:09.057Z,100215.55
2022-12-31T19:34:37.475Z,100215.70
2022-12-31T19:37:05.793Z,100214.17
2022-12-31T19:39:34.252Z,100216.73
2022-12-31T19:42:02.593Z,100220.45
2022-12-31T19:44:30.933Z,100219.23
2022-12-31T19:46:59.279Z,100219.48
2022-12-31T19:49:27.729Z,100219.99
2022-12-31T19:51:56.080Z,100225.83
2022-12-31T19:54:24.480Z,100220.61
2022-12-31T19:56:52.775Z,100216.16
2022-12-31T19:59:21.230Z,100217.50
2022-12-31T20:01:49.591Z,100217.45
2022-12-31T20:04:18.297Z,100220.82
2022-12-31T20:06:46.607Z,100221.77
2022-12-31T20:09:15.149Z,100226.91
2022-12-31T20:11:43.455Z,100222.36
2022-12-31T20:14:12.063Z,100231.92
2022-12-31T20:16:40.580Z,100236.49
2022-12-31T20:19:10.318Z,100238.16
2022-12-31T20:21:38.843Z,100231.72
2022-12-31T20:24:07.816Z,100232.41
2022-12-31T20:26:36.294Z,100230.05
2022-12-31T20:29:04.655Z,100229.15
2022-12-31T20:31:33.023Z,100232.14
2022-12-31T20:34:01.678Z,100229.35
2022-12-31T20:36:30.080Z,100232.24
2022-12-31T20:38:58.654Z,100234.28
2022-12-31T20:41:27.373Z,100237.91
2022-12-31T20:43:55.835Z,100237.80
2022-12-31T20:46:27.718Z,100241.50
2022-12-31T20:49:00.054Z,100242.29
2022-12-31T20:51:32.945Z,100243.05
2022-12-31T20:54:08.479Z,100241.27
2022-12-31T20:56:39.501Z,100237.06
2022-12-31T20:59:09.415Z,100235.13
2022-12-31T21:02:18.906Z,100229.52
2022-12-31T21:04:27.206Z,100225.54
2022-12-31T21:06:55.689Z,100222.55
2022-12-31T21:09:24.066Z,100219.45
2022-12-31T21:12:10.651Z,100215.73
2022-12-31T21:14:44.521Z,100214.45
2022-12-31T21:17:13.395Z,100218.63
2022-12-31T21:19:41.796Z,100218.92
2022-12-31T21:22:10.160Z,100219.70
2022-12-31T21:24:39.175Z,100219.01
2022-12-31T21:27:07.572Z,100229.89
2022-12-31T21:29:41.869Z,100227.25
2022-12-31T21:32:18.842Z,100228.27
2022-12-31T21:35:06.533Z,100218.34
2022-12-31T21:37:58.532Z,100216.73
2022-12-31T21:40:23.929Z,100217.62
2022-12-31T21:42:52.554Z,100218.75
2022-12-31T21:45:20.894Z,100223.09
2022-12-31T21:48:07.629Z,100231.46
2022-12-31T21:50:36.001Z,100223.55
2022-12-31T21:53:04.377Z,100225.05
2022-12-31T21:55:51.518Z,100225.59
2022-12-31T21:58:28.202Z,100229.23
2022-12-31T22:01:17.388Z,100224.39
2022-12-31T22:03:46.085Z,100221.92
2022-12-31T22:06:22.890Z,100221.04
2022-12-31T22:08:55.364Z,100223.05
2022-12-31T22:11:27.493Z,100223.97
2022-12-31T22:13:56.210Z,100225.95
2022-12-31T22:16:24.624Z,100224.08
2022-12-31T22:18:55.883Z,100226.14
2022-12-31T22:21:25.428Z,100233.88
2022-12-31T22:23:56.567Z,100232.80
2022-12-31T22:26:28.801Z,100230.35
2022-12-31T22:28:59.421Z,100233.43
2022-12-31T22:31:32.448Z,100233.90
2022-12-31T22:34:02.017Z,100230.79
2022-12-31T22:36:30.779Z,100229.94
2022-12-31T22:38:59.135Z,100234.00
2022-12-31T22:41:28.567Z,100236.60
2022-12-31T22:44:03.744Z,100234.63
2022-12-31T22:46:34.786Z,100232.88
2022-12-31T22:49:04.357Z,100230.18
2022-12-31T22:51:56.617Z,100225.05
2022-12-31T22:54:21.543Z,100234.29
2022-12-31T22:56:50.081Z,100237.77
2022-12-31T22:59:18.607Z,100236.87
2022-12-31T23:01:47.534Z,100237.92
2022-12-31T23:04:16.574Z,100234.69
2022-12-31T23:06:45.211Z,100230.88
2022-12-31T23:09:36.898Z,100229.41
2022-12-31T23:12:07.331Z,100220.73
2022-12-31T23:14:55.120Z,100223.19
2022-12-31T23:17:45.123Z,100228.73
2022-12-31T23:20:42.095Z,100223.54
2022-12-31T23:23:16.395Z,100218.51
2022-12-31T23:25:51.061Z,100221.05
2022-12-31T23:28:25.108Z,100219.29
2022-12-31T23:30:53.848Z,100217.34
2022-12-31T23:33:25.774Z,100208.83
2022-12-31T23:36:07.456Z,100204.09
2022-12-31T23:38:35.814Z,100203.05
2022-12-31T23:41:15.665Z,100198.02
2022-12-31T23:43:45.064Z,100189.98
2022-12-31T23:46:14.375Z,100183.74
2022-12-31T23:48:43.260Z,100192.81
2022-12-31T23:51:11.736Z,100218.03
2022-12-31T23:53:40.070Z,100219.14
2022-12-31T23:56:23.364Z,100214.09
2022-12-31T23:58:57.209Z,100214.31
